Toksook Bay, Alaska
Current Conditions -  °F | °C
As of 4:56 AM on Saturday 20 Dec 2014 (Local Time) from PAOO Reporting Station
Clear Clear  
Wind Chill: 13°   Ceiling: Unl
Heat Index: 22°   Visibility: 10mi
Dew Point:   Wind: 8mph
Humidity: 50%   Direction: 330°NNW
Pressure: 29.12"   Gusts: 20mph
Location:  60.53°N, 165.1°W
Report Text: PAOO 201356Z AUTO 33007G17KT 290V350 10SM CLR M06/M14 A2912 RMK AO2 TSNO T10551144 PK WND 36032/1310 SLP862 $
Loading
Personal Weather Stations






























Interactive Weather Map New forecast layout! Learn more

10-Day Weather Forecast

Advertisements
Track Severe Weather on mobile